Time;durP1;ratioP1;P1;durP2;ratioP2;P2;SDS_P1;SDS_P2;PMS_P1;PMS_P2;Temp;Humidity;BMP_temperature;BMP_pressure;BME280_temperature;BME280_humidity;BME280_pressure;Samples;Min_cycle;Max_cycle;Signal;HPM_P1;HPM_P2
2022/10/28 00:01:25;;;;;;;4.93;3.03;;;;;;;-145.48;100.00;64539.38;6005735;29;20038;-94
2022/10/28 00:04:27;;;;;;;5.22;3.20;;;;;;;-145.48;100.00;64539.38;5990428;29;20137;-94
2022/10/28 00:07:34;;;;;;;5.43;2.75;;;;;;;-145.48;100.00;64539.38;5981995;29;20042;-94
2022/10/28 00:10:36;;;;;;;5.35;2.65;;;;;;;-145.48;100.00;64539.38;5982813;29;20401;-94
2022/10/28 00:13:39;;;;;;;5.57;3.05;;;;;;;-145.48;100.00;64539.38;5987472;29;20137;-94
2022/10/28 00:16:42;;;;;;;8.88;3.10;;;;;;;-145.48;100.00;64539.38;5981343;29;20050;-94
2022/10/28 00:19:43;;;;;;;11.23;3.30;;;;;;;-145.48;100.00;64539.38;6003538;29;20058;-94
2022/10/28 00:22:45;;;;;;;7.60;3.15;;;;;;;-145.48;100.00;64539.38;5987622;29;20034;-93
2022/10/28 00:25:47;;;;;;;9.77;3.42;;;;;;;-145.48;100.00;64539.38;5989524;29;20167;-94
2022/10/28 00:28:58;;;;;;;5.35;3.05;;;;;;;-145.48;100.00;64539.38;5980617;29;20286;-94
2022/10/28 00:32:00;;;;;;;6.55;3.70;;;;;;;-145.48;100.00;64539.38;5956527;29;20077;-94
2022/10/28 00:35:02;;;;;;;6.95;2.90;;;;;;;-145.48;100.00;64539.38;5986130;29;20541;-93
2022/10/28 00:38:04;;;;;;;4.47;2.60;;;;;;;-145.48;100.00;64539.38;5980479;29;20638;-94
2022/10/28 00:41:08;;;;;;;4.95;3.00;;;;;;;-145.48;100.00;64539.38;5986757;29;20053;-93
2022/10/28 00:44:42;;;;;;;7.03;3.28;;;;;;;-145.48;100.00;64539.38;6001029;29;20124;-94
2022/10/28 00:47:55;;;;;;;7.75;3.38;;;;;;;-145.48;100.00;64539.38;5971402;29;20110;-94
2022/10/28 00:50:58;;;;;;;8.73;3.13;;;;;;;-145.48;100.00;64539.38;5969783;29;20077;-94
2022/10/28 00:54:02;;;;;;;8.50;3.28;;;;;;;-145.48;100.00;64539.38;5971239;29;20057;-93
2022/10/28 00:57:10;;;;;;;8.18;3.28;;;;;;;-145.48;100.00;64539.38;5970489;29;20227;-94
2022/10/28 01:00:13;;;;;;;8.68;3.20;;;;;;;-145.48;100.00;64539.38;5970576;29;20120;-94
2022/10/28 01:03:15;;;;;;;8.20;3.28;;;;;;;-145.48;100.00;64539.38;5966344;29;20574;-94
2022/10/28 01:06:17;;;;;;;10.60;3.20;;;;;;;-145.48;100.00;64539.38;5970282;29;20226;-94
2022/10/28 01:09:20;;;;;;;5.78;3.25;;;;;;;-145.48;100.00;64539.38;5968846;29;20628;-94
2022/10/28 01:13:00;;;;;;;12.63;3.13;;;;;;;-145.48;100.00;64539.38;5954724;29;20082;-94
2022/10/28 01:16:08;;;;;;;;;;;;;;;-145.48;100.00;64539.38;5928843;30;20105;-94
2022/10/28 01:19:49;;;;;;;8.18;3.05;;;;;;;-145.48;100.00;64539.38;5921636;30;20420;-94
2022/10/28 01:23:30;;;;;;;7.60;3.65;;;;;;;-145.48;100.00;64539.38;5899855;30;20111;-93
2022/10/28 01:27:02;;;;;;;13.57;3.70;;;;;;;-145.48;100.00;64539.38;5926827;29;20066;-94
2022/10/28 01:30:13;;;;;;;5.82;2.95;;;;;;;-145.48;100.00;64539.38;5943419;29;20054;-94
2022/10/28 01:33:31;;;;;;;8.77;3.53;;;;;;;-145.48;100.00;64539.38;5937234;29;20098;-94
2022/10/28 01:36:38;;;;;;;6.40;3.10;;;;;;;-145.48;100.00;64539.38;5938297;29;20059;-94
2022/10/28 01:39:40;;;;;;;6.53;2.78;;;;;;;-145.48;100.00;64539.38;5928506;29;20090;-93
2022/10/28 01:43:01;;;;;;;10.38;3.40;;;;;;;-145.48;100.00;64539.38;5945731;29;20047;-94
2022/10/28 01:46:10;;;;;;;7.43;2.97;;;;;;;-145.48;100.00;64539.38;5951380;29;20063;-94
2022/10/28 01:49:22;;;;;;;6.72;3.22;;;;;;;-145.48;100.00;64539.38;5941783;29;20487;-94
2022/10/28 01:52:28;;;;;;;7.88;3.33;;;;;;;-145.48;100.00;64539.38;5957113;29;20066;-94
2022/10/28 01:55:35;;;;;;;7.22;3.30;;;;;;;-145.48;100.00;64539.38;5994449;29;20046;-93
2022/10/28 01:58:38;;;;;;;9.48;3.42;;;;;;;-145.48;100.00;64539.38;6008916;29;20054;-94
2022/10/28 02:01:40;;;;;;;7.18;3.08;;;;;;;-145.48;100.00;64539.38;5993028;29;20574;-94
2022/10/28 02:04:43;;;;;;;9.68;3.30;;;;;;;-145.48;100.00;64539.38;6006145;29;20053;-94
2022/10/28 02:07:46;;;;;;;8.68;3.25;;;;;;;-145.48;100.00;64539.38;5998766;29;20377;-94
2022/10/28 02:11:00;;;;;;;7.18;3.40;;;;;;;-145.48;100.00;64539.38;5996587;29;20076;-93
2022/10/28 02:14:32;;;;;;;7.60;3.53;;;;;;;-145.48;100.00;64539.38;5993627;29;20074;-93
2022/10/28 02:17:49;;;;;;;6.60;3.17;;;;;;;-145.48;100.00;64539.38;5998762;29;20530;-94
2022/10/28 02:20:54;;;;;;;8.20;3.25;;;;;;;-145.48;100.00;64539.38;5996702;29;20486;-94
2022/10/28 02:24:41;;;;;;;8.55;3.50;;;;;;;-145.48;100.00;64539.38;5984159;29;20050;-93
2022/10/28 02:27:58;;;;;;;5.93;3.15;;;;;;;-145.48;100.00;64539.38;5992633;29;20058;-94
2022/10/28 02:31:08;;;;;;;5.80;2.92;;;;;;;-145.48;100.00;64539.38;5992957;29;20045;-94
2022/10/28 02:34:24;;;;;;;10.15;3.53;;;;;;;-145.48;100.00;64539.38;5990481;29;20466;-93
2022/10/28 02:37:30;;;;;;;6.05;3.40;;;;;;;-145.48;100.00;64539.38;5997028;29;20561;-93
2022/10/28 02:40:35;;;;;;;7.47;3.05;;;;;;;-145.48;100.00;64539.38;5991965;29;20470;-94
2022/10/28 02:43:37;;;;;;;6.22;3.17;;;;;;;-145.48;100.00;64539.38;5999990;29;20056;-94
2022/10/28 02:46:43;;;;;;;12.57;3.28;;;;;;;-145.48;100.00;64539.38;5998159;29;20113;-94
2022/10/28 02:49:52;;;;;;;7.28;3.25;;;;;;;-145.48;100.00;64539.38;6014235;29;20819;-94
2022/10/28 02:52:57;;;;;;;7.32;3.00;;;;;;;-145.48;100.00;64539.38;6001824;29;20042;-94
2022/10/28 02:56:03;;;;;;;8.93;3.42;;;;;;;-145.48;100.00;64539.38;5987372;29;20054;-93
2022/10/28 02:59:10;;;;;;;8.48;3.38;;;;;;;-145.48;100.00;64539.38;6000721;29;20046;-94
2022/10/28 03:02:12;;;;;;;8.25;3.40;;;;;;;-145.48;100.00;64539.38;5989843;29;20425;-94
2022/10/28 03:05:14;;;;;;;8.40;3.30;;;;;;;-145.48;100.00;64539.38;5992343;29;20520;-94
2022/10/28 03:08:16;;;;;;;5.63;3.08;;;;;;;-145.48;100.00;64539.38;5999184;29;20642;-94
2022/10/28 03:11:19;;;;;;;7.82;3.40;;;;;;;-145.48;100.00;64539.38;5990054;29;20098;-94
2022/10/28 03:14:21;;;;;;;7.10;3.58;;;;;;;-145.48;100.00;64539.38;5992218;29;20339;-94
2022/10/28 03:17:23;;;;;;;6.95;3.47;;;;;;;-145.48;100.00;64539.38;5999841;29;20061;-93
2022/10/28 03:20:25;;;;;;;8.38;3.40;;;;;;;-145.48;100.00;64539.38;5991082;29;20132;-94
2022/10/28 03:23:27;;;;;;;7.63;3.30;;;;;;;-145.48;100.00;64539.38;5985565;29;20061;-93
2022/10/28 03:26:29;;;;;;;5.57;3.25;;;;;;;-145.48;100.00;64539.38;6001256;29;20038;-94
2022/10/28 03:29:31;;;;;;;8.63;3.40;;;;;;;-145.48;100.00;64539.38;5991405;29;20046;-94
2022/10/28 03:32:33;;;;;;;6.38;3.40;;;;;;;-145.48;100.00;64539.38;5971465;29;20057;-93
2022/10/28 03:35:35;;;;;;;14.48;3.60;;;;;;;-145.48;100.00;64539.38;5996061;29;20053;-94
2022/10/28 03:38:37;;;;;;;8.98;3.58;;;;;;;-145.48;100.00;64539.38;5987504;29;20073;-93
2022/10/28 03:41:39;;;;;;;5.55;3.42;;;;;;;-145.48;100.00;64539.38;5999289;29;20053;-93
2022/10/28 03:44:41;;;;;;;7.57;3.95;;;;;;;-145.48;100.00;64539.38;5986392;29;20057;-94
2022/10/28 03:47:43;;;;;;;9.35;3.25;;;;;;;-145.48;100.00;64539.38;6012441;29;20057;-94
2022/10/28 03:50:45;;;;;;;6.78;3.90;;;;;;;-145.48;100.00;64539.38;6007266;29;20254;-94
2022/10/28 03:53:47;;;;;;;10.77;4.05;;;;;;;-145.48;100.00;64539.38;5996572;29;20049;-94
2022/10/28 03:56:49;;;;;;;7.38;3.63;;;;;;;-145.48;100.00;64539.38;5999965;29;20121;-94
2022/10/28 03:59:52;;;;;;;9.82;3.38;;;;;;;-145.48;100.00;64539.38;6002399;29;20576;-94
2022/10/28 04:02:54;;;;;;;7.05;3.63;;;;;;;-145.48;100.00;64539.38;5998264;29;20057;-94
2022/10/28 04:05:56;;;;;;;7.15;3.42;;;;;;;-145.48;100.00;64539.38;5984354;29;20042;-93
2022/10/28 04:08:58;;;;;;;7.30;3.05;;;;;;;-145.48;100.00;64539.38;5990868;29;20037;-94
2022/10/28 04:12:00;;;;;;;7.03;3.70;;;;;;;-145.48;100.00;64539.38;6004787;29;20046;-94
2022/10/28 04:15:03;;;;;;;8.50;3.72;;;;;;;-145.48;100.00;64539.38;5985397;29;20104;-93
2022/10/28 04:18:05;;;;;;;7.07;3.65;;;;;;;-145.48;100.00;64539.38;5999046;29;20069;-93
2022/10/28 04:21:07;;;;;;;8.60;3.60;;;;;;;-145.48;100.00;64539.38;6007919;29;20045;-93
2022/10/28 04:24:09;;;;;;;6.50;3.67;;;;;;;-145.48;100.00;64539.38;5998145;29;20049;-94
2022/10/28 04:27:11;;;;;;;8.48;3.60;;;;;;;-145.48;100.00;64539.38;5990208;29;20046;-93
2022/10/28 04:30:13;;;;;;;8.18;3.90;;;;;;;-145.48;100.00;64539.38;5986709;29;20042;-93
2022/10/28 04:33:15;;;;;;;7.10;3.20;;;;;;;-145.48;100.00;64539.38;5999116;29;20053;-94
2022/10/28 04:36:18;;;;;;;8.18;3.72;;;;;;;-145.48;100.00;64539.38;6013311;29;20081;-93
2022/10/28 04:39:20;;;;;;;6.93;3.38;;;;;;;-145.48;100.00;64539.38;5999108;29;20182;-93
2022/10/28 04:42:23;;;;;;;5.05;3.13;;;;;;;-145.48;100.00;64539.38;5999006;29;20061;-93
2022/10/28 04:45:25;;;;;;;9.35;3.40;;;;;;;-145.48;100.00;64539.38;5998257;29;20044;-94
2022/10/28 04:48:27;;;;;;;12.52;4.00;;;;;;;-145.48;100.00;64539.38;5990577;29;20426;-93
2022/10/28 04:51:28;;;;;;;8.57;3.80;;;;;;;-145.48;100.00;64539.38;6003404;29;20046;-93
2022/10/28 04:54:31;;;;;;;10.30;3.38;;;;;;;-145.48;100.00;64539.38;5998219;29;20046;-93
2022/10/28 04:57:33;;;;;;;8.75;3.55;;;;;;;-145.48;100.00;64539.38;5996424;29;20462;-93
2022/10/28 05:00:35;;;;;;;11.00;3.47;;;;;;;-145.48;100.00;64539.38;5996050;29;20038;-94
2022/10/28 05:03:37;;;;;;;10.57;3.35;;;;;;;-145.48;100.00;64539.38;5988311;29;20128;-94
2022/10/28 05:06:39;;;;;;;8.02;3.33;;;;;;;-145.48;100.00;64539.38;5997399;29;20054;-94
2022/10/28 05:09:41;;;;;;;7.95;4.03;;;;;;;-145.48;100.00;64539.38;5992589;29;20046;-94
2022/10/28 05:12:44;;;;;;;10.73;3.88;;;;;;;-145.48;100.00;64539.38;5997321;29;20138;-94
2022/10/28 05:15:47;;;;;;;8.63;4.22;;;;;;;-145.48;100.00;64539.38;5993868;29;20046;-93
2022/10/28 05:18:49;;;;;;;8.23;3.72;;;;;;;-145.48;100.00;64539.38;6000982;29;20040;-94
2022/10/28 05:21:51;;;;;;;9.30;3.47;;;;;;;-145.48;100.00;64539.38;5993844;29;20111;-94
2022/10/28 05:24:53;;;;;;;9.85;3.78;;;;;;;-145.48;100.00;64539.38;6003886;29;20049;-94
2022/10/28 05:27:59;;;;;;;5.68;3.42;;;;;;;-145.48;100.00;64539.38;5980256;29;20058;-94
2022/10/28 05:31:01;;;;;;;6.32;3.33;;;;;;;-145.48;100.00;64539.38;6005364;29;20354;-94
2022/10/28 05:34:03;;;;;;;7.80;3.13;;;;;;;-145.48;100.00;64539.38;5987559;29;20478;-94
2022/10/28 05:37:05;;;;;;;9.98;3.35;;;;;;;-145.48;100.00;64539.38;6002375;29;20046;-94
2022/10/28 05:40:09;;;;;;;9.25;3.83;;;;;;;-145.48;100.00;64539.38;6017819;29;20477;-94
2022/10/28 05:43:11;;;;;;;7.95;3.30;;;;;;;-145.48;100.00;64539.38;6001602;29;20431;-93
2022/10/28 05:46:13;;;;;;;11.38;4.20;;;;;;;-145.48;100.00;64539.38;6001817;29;20046;-94
2022/10/28 05:49:19;;;;;;;8.38;3.40;;;;;;;-145.48;100.00;64539.38;6004925;29;20489;-93
2022/10/28 05:52:21;;;;;;;8.55;3.33;;;;;;;-145.48;100.00;64539.38;6002692;29;20052;-93
2022/10/28 05:55:27;;;;;;;8.48;3.33;;;;;;;-145.48;100.00;64539.38;6004353;29;20070;-93
2022/10/28 05:58:28;;;;;;;9.40;3.63;;;;;;;-145.48;100.00;64539.38;5994528;29;20521;-94
2022/10/28 06:01:30;;;;;;;5.80;2.90;;;;;;;-145.48;100.00;64539.38;6005316;29;20175;-94
2022/10/28 06:04:32;;;;;;;8.68;3.22;;;;;;;-145.48;100.00;64539.38;5998403;29;20121;-93
2022/10/28 06:07:36;;;;;;;7.55;2.95;;;;;;;-145.48;100.00;64539.38;6001205;29;20406;-93
2022/10/28 06:10:38;;;;;;;10.80;3.70;;;;;;;-145.48;100.00;64539.38;6013934;29;20043;-94
2022/10/28 06:13:40;;;;;;;12.15;4.32;;;;;;;-145.48;100.00;64539.38;5992181;29;20042;-93
2022/10/28 06:16:42;;;;;;;8.95;4.28;;;;;;;-145.48;100.00;64539.38;6007688;29;21184;-93
2022/10/28 06:19:46;;;;;;;6.93;3.08;;;;;;;-145.48;100.00;64539.38;5993968;29;20034;-94
2022/10/28 06:22:50;;;;;;;11.05;3.15;;;;;;;-145.48;100.00;64539.38;5986314;29;20168;-94
2022/10/28 06:25:57;;;;;;;9.85;4.15;;;;;;;-145.48;100.00;64539.38;5999510;29;20054;-94
2022/10/28 06:29:04;;;;;;;8.77;3.15;;;;;;;-145.48;100.00;64539.38;6000982;29;20050;-94
2022/10/28 06:32:09;;;;;;;7.97;3.25;;;;;;;-145.48;100.00;64539.38;5994309;29;20046;-94
2022/10/28 06:35:11;;;;;;;12.50;4.03;;;;;;;-145.48;100.00;64539.38;5991358;29;20042;-93
2022/10/28 06:38:14;;;;;;;10.10;3.25;;;;;;;-145.48;100.00;64539.38;5996225;29;20467;-94
2022/10/28 06:41:16;;;;;;;9.93;3.40;;;;;;;-145.48;100.00;64539.38;6001724;29;20053;-93
2022/10/28 06:44:19;;;;;;;6.70;3.10;;;;;;;-145.48;100.00;64539.38;6000897;29;20145;-93
2022/10/28 06:47:21;;;;;;;6.68;3.10;;;;;;;-145.48;100.00;64539.38;5999840;29;20515;-94
2022/10/28 06:50:24;;;;;;;11.48;3.42;;;;;;;-145.48;100.00;64539.38;6001237;29;20592;-93
2022/10/28 06:53:26;;;;;;;7.20;3.08;;;;;;;-145.48;100.00;64539.38;5998648;29;20513;-94
2022/10/28 06:56:28;;;;;;;6.40;3.22;;;;;;;-145.48;100.00;64539.38;5992176;29;20523;-93
2022/10/28 06:59:30;;;;;;;12.68;4.18;;;;;;;-145.48;100.00;64539.38;5990981;29;20034;-93
2022/10/28 07:02:32;;;;;;;8.23;3.45;;;;;;;-145.48;100.00;64539.38;5991735;29;20054;-94
2022/10/28 07:05:36;;;;;;;9.48;3.83;;;;;;;-145.48;100.00;64539.38;6014503;29;20046;-94
2022/10/28 07:08:38;;;;;;;10.75;2.90;;;;;;;-145.48;100.00;64539.38;5994971;29;20057;-93
2022/10/28 07:11:46;;;;;;;10.15;2.97;;;;;;;-145.48;100.00;64539.38;5993300;29;20158;-94
2022/10/28 07:14:54;;;;;;;9.77;3.20;;;;;;;-145.48;100.00;64539.38;5983326;29;20422;-95
2022/10/28 07:17:58;;;;;;;10.65;3.38;;;;;;;-145.48;100.00;64539.38;5994063;29;20041;-93
2022/10/28 07:21:01;;;;;;;7.00;3.08;;;;;;;-145.48;100.00;64539.38;5996361;29;20046;-94
2022/10/28 07:24:03;;;;;;;5.82;3.17;;;;;;;-145.48;100.00;64539.38;6013655;29;20049;-94
2022/10/28 07:27:05;;;;;;;8.18;3.22;;;;;;;-145.48;100.00;64539.38;6000418;29;20220;-93
2022/10/28 07:30:07;;;;;;;10.98;4.10;;;;;;;-145.48;100.00;64539.38;5999721;29;20497;-93
2022/10/28 07:33:10;;;;;;;12.43;3.92;;;;;;;-145.48;100.00;64539.38;5999458;29;20080;-93
2022/10/28 07:36:12;;;;;;;6.80;3.90;;;;;;;-145.48;100.00;64539.38;5997745;29;20061;-94
2022/10/28 07:39:14;;;;;;;13.90;3.80;;;;;;;-145.48;100.00;64539.38;5999957;29;20054;-93
2022/10/28 07:42:16;;;;;;;12.50;4.15;;;;;;;-145.48;100.00;64539.38;6001029;29;20054;-93
2022/10/28 07:45:18;;;;;;;6.80;3.40;;;;;;;-145.48;100.00;64539.38;5999175;29;20049;-93
2022/10/28 07:48:20;;;;;;;7.50;3.38;;;;;;;-145.48;100.00;64539.38;6000086;29;20129;-93
2022/10/28 07:51:25;;;;;;;5.63;2.90;;;;;;;-145.48;100.00;64539.38;6000745;29;20042;-93
2022/10/28 07:54:27;;;;;;;15.35;3.45;;;;;;;-145.48;100.00;64539.38;5996768;29;20531;-93
2022/10/28 07:57:30;;;;;;;8.52;3.60;;;;;;;-145.48;100.00;64539.38;5991190;29;20054;-93
2022/10/28 08:00:32;;;;;;;8.65;3.22;;;;;;;-145.48;100.00;64539.38;6001292;29;20053;-93
2022/10/28 08:03:35;;;;;;;9.48;3.60;;;;;;;-145.48;100.00;64539.38;5998440;29;20050;-94
2022/10/28 08:06:39;;;;;;;8.57;3.45;;;;;;;-145.48;100.00;64539.38;5996943;29;20518;-93
2022/10/28 08:09:42;;;;;;;7.85;3.00;;;;;;;-145.48;100.00;64539.38;6000130;29;20038;-94
2022/10/28 08:12:45;;;;;;;12.73;3.47;;;;;;;-145.48;100.00;64539.38;5994432;29;20046;-94
2022/10/28 08:15:54;;;;;;;12.93;4.70;;;;;;;-145.48;100.00;64539.38;5995631;29;20065;-93
2022/10/28 08:18:56;;;;;;;10.85;4.30;;;;;;;-145.48;100.00;64539.38;5997625;29;20066;-93
2022/10/28 08:21:58;;;;;;;6.70;3.38;;;;;;;-145.48;100.00;64539.38;5997390;29;20042;-94
2022/10/28 08:25:00;;;;;;;9.18;3.30;;;;;;;-145.48;100.00;64539.38;5997569;29;20050;-94
2022/10/28 08:28:02;;;;;;;9.30;3.78;;;;;;;-145.48;100.00;64539.38;6001055;29;20050;-94
2022/10/28 08:31:07;;;;;;;9.23;3.15;;;;;;;-145.48;100.00;64539.38;5980252;29;20388;-94
2022/10/28 08:34:10;;;;;;;8.30;3.67;;;;;;;-145.48;100.00;64539.38;5979350;29;20375;-93
2022/10/28 08:37:14;;;;;;;7.72;3.13;;;;;;;-145.48;100.00;64539.38;5995538;29;20071;-93
2022/10/28 08:40:23;;;;;;;5.88;3.58;;;;;;;-145.48;100.00;64539.38;5994403;29;20054;-93
2022/10/28 08:43:58;;;;;;;13.23;4.35;;;;;;;-145.48;100.00;64539.38;6001572;29;20074;-93
2022/10/28 08:47:25;;;;;;;6.82;3.40;;;;;;;-145.48;100.00;64539.38;5994557;29;20182;-93
2022/10/28 08:50:30;;;;;;;10.52;3.53;;;;;;;-145.48;100.00;64539.38;6011030;29;20045;-93
2022/10/28 08:53:40;;;;;;;12.13;4.63;;;;;;;-145.48;100.00;64539.38;6012089;29;20085;-93
2022/10/28 08:56:46;;;;;;;7.28;3.75;;;;;;;-145.48;100.00;64539.38;5995626;29;20045;-93
2022/10/28 08:59:51;;;;;;;9.07;3.13;;;;;;;-145.48;100.00;64539.38;5999806;29;20046;-93
2022/10/28 09:03:12;;;;;;;6.13;2.63;;;;;;;-145.48;100.00;64539.38;5993431;29;20037;-94
2022/10/28 09:06:14;;;;;;;13.07;4.72;;;;;;;-145.48;100.00;64539.38;5988626;29;20149;-94
2022/10/28 09:09:21;;;;;;;12.65;3.40;;;;;;;-145.48;100.00;64539.38;5993545;29;20058;-94
2022/10/28 09:12:40;;;;;;;6.38;3.40;;;;;;;-145.48;100.00;64539.38;6008960;29;20057;-94
2022/10/28 09:15:48;;;;;;;11.37;3.03;;;;;;;-145.48;100.00;64539.38;5990636;29;20363;-93
2022/10/28 09:18:54;;;;;;;9.00;3.03;;;;;;;-145.48;100.00;64539.38;5993694;29;20058;-93
2022/10/28 09:22:21;;;;;;;8.40;3.08;;;;;;;-145.48;100.00;64539.38;5998500;29;20093;-93
2022/10/28 09:25:38;;;;;;;7.43;2.80;;;;;;;-145.48;100.00;64539.38;6009294;29;20045;-93
2022/10/28 09:29:25;;;;;;;7.20;3.03;;;;;;;-145.48;100.00;64539.38;5987366;29;20050;-94
2022/10/28 09:33:05;;;;;;;10.18;3.13;;;;;;;-145.48;100.00;64539.38;5988154;29;20073;-94
2022/10/28 09:36:20;;;;;;;9.95;2.80;;;;;;;-145.48;100.00;64539.38;5993413;29;20086;-94
2022/10/28 09:39:27;;;;;;;11.23;3.80;;;;;;;-145.48;100.00;64539.38;5999625;29;20057;-94
2022/10/28 09:42:38;;;;;;;5.10;3.25;;;;;;;-145.48;100.00;64539.38;5998518;29;20054;-94
2022/10/28 09:45:47;;;;;;;9.00;3.10;;;;;;;-145.48;100.00;64539.38;5995097;29;20042;-94
2022/10/28 09:48:52;;;;;;;10.20;3.30;;;;;;;-145.48;100.00;64539.38;5991826;29;20034;-94
2022/10/28 09:52:08;;;;;;;7.65;3.78;;;;;;;-145.48;100.00;64539.38;6001695;29;20053;-94
2022/10/28 09:55:20;;;;;;;6.93;3.30;;;;;;;-145.48;100.00;64539.38;5997931;29;20273;-95
2022/10/28 09:58:22;;;;;;;11.20;3.45;;;;;;;-145.48;100.00;64539.38;5996686;29;20360;-95
2022/10/28 10:01:28;;;;;;;9.27;3.75;;;;;;;-145.48;100.00;64539.38;6001411;29;20057;-96
2022/10/28 10:04:30;;;;;;;9.52;3.70;;;;;;;-145.48;100.00;64539.38;6007638;29;20055;-96
2022/10/28 10:08:05;;;;;;;8.70;3.47;;;;;;;-145.48;100.00;64539.38;5995468;29;20054;-96
2022/10/28 10:11:35;;;;;;;9.80;3.38;;;;;;;-145.48;100.00;64539.38;6016459;29;20050;-95
2022/10/28 10:14:55;;;;;;;9.40;3.20;;;;;;;-145.48;100.00;64539.38;6000270;29;20501;-95
2022/10/28 10:18:02;;;;;;;7.75;3.15;;;;;;;-145.48;100.00;64539.38;5992690;29;20156;-95
2022/10/28 10:21:05;;;;;;;11.15;3.40;;;;;;;-145.48;100.00;64539.38;5993521;29;20050;-94
2022/10/28 10:24:28;;;;;;;10.85;3.05;;;;;;;-145.48;100.00;64539.38;5989533;29;20569;-95
2022/10/28 10:27:31;;;;;;;7.95;3.33;;;;;;;-145.48;100.00;64539.38;6002673;29;20046;-94
2022/10/28 10:34:24;;;;;;;9.30;3.05;;;;;;;-145.48;100.00;64539.38;5995893;29;20062;-96
2022/10/28 10:37:32;;;;;;;9.80;3.15;;;;;;;-145.48;100.00;64539.38;5971717;29;20133;-95
2022/10/28 10:40:46;;;;;;;8.15;2.95;;;;;;;-145.48;100.00;64539.38;5980147;29;20505;-95
2022/10/28 10:43:51;;;;;;;6.13;3.30;;;;;;;-145.48;100.00;64539.38;5979638;29;20057;-92
2022/10/28 10:47:00;;;;;;;8.77;3.10;;;;;;;-145.48;100.00;64539.38;5991233;29;20046;-94
2022/10/28 10:50:31;;;;;;;11.13;3.78;;;;;;;-145.48;100.00;64539.38;5979236;29;20039;-91
2022/10/28 10:53:53;;;;;;;5.88;2.80;;;;;;;-145.48;100.00;64539.38;5982340;29;20051;-96
2022/10/28 10:57:44;;;;;;;10.88;3.78;;;;;;;-145.48;100.00;64539.38;5984273;29;20053;-96
2022/10/28 11:01:38;;;;;;;7.03;2.80;;;;;;;-145.48;100.00;64539.38;6002926;29;20056;-93
2022/10/28 11:04:50;;;;;;;10.55;3.22;;;;;;;-145.48;100.00;64539.38;5998175;29;20046;-91
2022/10/28 11:07:52;;;;;;;7.57;3.05;;;;;;;-145.48;100.00;64539.38;5998239;29;20587;-91
2022/10/28 11:11:30;;;;;;;11.73;3.33;;;;;;;-145.48;100.00;64539.38;5981749;29;20409;-91
2022/10/28 11:14:32;;;;;;;5.78;2.80;;;;;;;-145.48;100.00;64539.38;5991236;29;20057;-91
2022/10/28 11:17:35;;;;;;;10.68;3.03;;;;;;;-145.48;100.00;64539.38;5998090;29;20054;-91
2022/10/28 11:20:42;;;;;;;9.20;2.72;;;;;;;-145.48;100.00;64539.38;5998278;29;20061;-91
2022/10/28 11:24:29;;;;;;;5.80;2.70;;;;;;;-145.48;100.00;64539.38;5998155;29;20049;-91
2022/10/28 11:27:51;;;;;;;6.88;2.75;;;;;;;-145.48;100.00;64539.38;5975828;29;20062;-91
2022/10/28 11:31:28;;;;;;;7.70;3.20;;;;;;;-145.48;100.00;64539.38;5975355;29;20118;-91
2022/10/28 11:34:46;;;;;;;8.77;4.60;;;;;;;-145.48;100.00;64539.38;5973246;29;20080;-91
2022/10/28 11:38:18;;;;;;;9.65;3.08;;;;;;;-145.48;100.00;64539.38;5974917;29;20063;-91
2022/10/28 11:41:41;;;;;;;10.52;3.00;;;;;;;-145.48;100.00;64539.38;5974900;29;20055;-90
2022/10/28 11:44:55;;;;;;;7.63;2.95;;;;;;;-145.48;100.00;64539.38;5909112;29;20156;-91
2022/10/28 11:48:15;;;;;;;9.68;3.53;;;;;;;-145.48;100.00;64539.38;5907631;30;20589;-90
2022/10/28 11:51:41;;;;;;;10.20;2.78;;;;;;;-145.48;100.00;64539.38;5908113;30;20092;-91
2022/10/28 11:54:58;;;;;;;8.05;2.70;;;;;;;-145.48;100.00;64539.38;5892943;30;20082;-91
2022/10/28 11:58:03;;;;;;;10.40;3.22;;;;;;;-145.48;100.00;64539.38;5896058;30;20570;-91
2022/10/28 12:01:23;;;;;;;9.77;2.95;;;;;;;-145.48;100.00;64539.38;5907381;30;20515;-91
2022/10/28 12:04:59;;;;;;;10.85;3.42;;;;;;;-145.48;100.00;64539.38;5950077;29;20057;-90
2022/10/28 12:08:38;;;;;;;7.68;2.80;;;;;;;-145.48;100.00;64539.38;5976066;29;20077;-91
2022/10/28 12:12:18;;;;;;;10.32;3.30;;;;;;;-145.48;100.00;64539.38;5970482;29;20440;-91
2022/10/28 12:15:45;;;;;;;8.43;3.17;;;;;;;-145.48;100.00;64539.38;5959868;29;20308;-90
2022/10/28 12:19:07;;;;;;;8.68;3.17;;;;;;;-145.48;100.00;64539.38;5974863;29;20057;-91
2022/10/28 12:22:22;;;;;;;8.68;2.85;;;;;;;-145.48;100.00;64539.38;5974931;29;20038;-91
2022/10/28 12:25:27;;;;;;;9.18;2.65;;;;;;;-145.48;100.00;64539.38;5960557;29;20070;-91
2022/10/28 12:28:36;;;;;;;11.00;2.53;;;;;;;-145.48;100.00;64539.38;5974839;29;20042;-90
2022/10/28 12:31:46;;;;;;;8.45;2.65;;;;;;;-145.48;100.00;64539.38;5973777;29;20213;-90
2022/10/28 12:34:54;;;;;;;;;;;;;;;-145.48;100.00;64539.38;5975147;29;20086;-91
2022/10/28 12:38:22;;;;;;;8.18;3.17;;;;;;;-145.48;100.00;64539.38;5969414;29;20392;-91
2022/10/28 12:41:30;;;;;;;14.68;3.72;;;;;;;-145.48;100.00;64539.38;5974537;29;20058;-91
2022/10/28 12:44:36;;;;;;;6.35;2.88;;;;;;;-145.48;100.00;64539.38;5975948;29;20545;-91
2022/10/28 12:47:47;;;;;;;7.68;3.00;;;;;;;-145.48;100.00;64539.38;5976311;29;20043;-91
2022/10/28 12:50:51;;;;;;;5.78;2.50;;;;;;;-145.48;100.00;64539.38;5972597;29;20034;-92
2022/10/28 12:54:06;;;;;;;7.93;2.80;;;;;;;-145.48;100.00;64539.38;5991043;29;20314;-93
2022/10/28 12:57:12;;;;;;;11.48;3.30;;;;;;;-145.48;100.00;64539.38;5977194;29;20049;-93
2022/10/28 13:00:20;;;;;;;8.40;2.83;;;;;;;-145.48;100.00;64539.38;5990233;29;20065;-92
2022/10/28 13:03:23;;;;;;;10.75;3.22;;;;;;;-145.48;100.00;64539.38;5977410;29;20038;-93
2022/10/28 13:06:50;;;;;;;7.85;2.88;;;;;;;-145.48;100.00;64539.38;5976725;29;20045;-93
2022/10/28 13:10:37;;;;;;;10.10;3.45;;;;;;;-145.48;100.00;64539.38;5987036;29;20058;-93
2022/10/28 13:14:02;;;;;;;11.45;3.38;;;;;;;-145.48;100.00;64539.38;5975604;29;20138;-93
2022/10/28 13:17:23;;;;;;;9.57;2.85;;;;;;;-145.48;100.00;64539.38;5977627;29;20066;-93
2022/10/28 13:21:10;;;;;;;10.23;2.88;;;;;;;-145.48;100.00;64539.38;5977767;29;20054;-93
2022/10/28 13:24:20;;;;;;;9.27;3.20;;;;;;;-145.48;100.00;64539.38;5977572;29;20537;-94
2022/10/28 13:27:22;;;;;;;11.55;3.38;;;;;;;-145.48;100.00;64539.38;5986642;29;20054;-93
2022/10/28 13:30:26;;;;;;;9.60;2.97;;;;;;;-145.48;100.00;64539.38;5977589;29;20070;-94
2022/10/28 13:33:29;;;;;;;8.85;2.90;;;;;;;-145.48;100.00;64539.38;5978282;29;20050;-93
2022/10/28 13:36:41;;;;;;;10.40;2.88;;;;;;;-145.48;100.00;64539.38;5977921;29;20518;-93
2022/10/28 13:39:45;;;;;;;10.35;3.90;;;;;;;-145.48;100.00;64539.38;5986974;29;20152;-93
2022/10/28 13:42:48;;;;;;;8.02;3.05;;;;;;;-145.48;100.00;64539.38;5976828;29;20426;-93
2022/10/28 13:45:55;;;;;;;10.48;3.10;;;;;;;-145.48;100.00;64539.38;5976935;29;20177;-93
2022/10/28 13:49:30;;;;;;;7.60;2.95;;;;;;;-145.48;100.00;64539.38;5976892;29;20067;-93
2022/10/28 13:52:39;;;;;;;9.07;3.42;;;;;;;-145.48;100.00;64539.38;5974616;29;20117;-93
2022/10/28 13:55:43;;;;;;;11.33;3.07;;;;;;;-145.48;100.00;64539.38;5981174;29;20630;-93
2022/10/28 13:58:58;;;;;;;8.18;2.92;;;;;;;-145.48;100.00;64539.38;5979561;29;20046;-92
2022/10/28 14:02:19;;;;;;;10.60;2.97;;;;;;;-145.48;100.00;64539.38;5980082;29;20175;-93
2022/10/28 14:05:36;;;;;;;8.25;2.97;;;;;;;-145.48;100.00;64539.38;5979859;29;20634;-93
2022/10/28 14:08:40;;;;;;;11.13;3.42;;;;;;;-145.48;100.00;64539.38;5980260;29;20493;-93
2022/10/28 14:11:42;;;;;;;8.50;3.28;;;;;;;-145.48;100.00;64539.38;5981178;29;20051;-92
2022/10/28 14:15:03;;;;;;;11.50;3.28;;;;;;;-145.48;100.00;64539.38;5980195;29;20372;-93
2022/10/28 14:18:16;;;;;;;10.35;3.58;;;;;;;-145.48;100.00;64539.38;5976467;29;20554;-93
2022/10/28 14:21:50;;;;;;;7.82;3.55;;;;;;;-145.48;100.00;64539.38;5979093;29;20038;-93